Bueche, Louisiana
Current Conditions -  °F | °C
As of 7:53 PM on Thursday 20 Nov 2014 (Local Time) from KBTR Reporting Station
Few Clouds Few Clouds  
Wind Chill: 57°   Ceiling: Unl
Heat Index: 57°   Visibility: 10mi
Dew Point: 46°   Wind: 7mph
Humidity: 67%   Direction: 130°SE
Pressure: 30.21"   Gusts: NA
Location:  30.57°N, 91.35°W
Report Text: KBTR 210153Z 13006KT 10SM FEW070 14/08 A3021 RMK AO2 SLP230 T01390078
Loading
Personal Weather Stations






























Interactive Weather Map New forecast layout! Learn more

10-Day Weather Forecast

Advertisements
Track Severe Weather on mobile